Time;durP1;ratioP1;P1;durP2;ratioP2;P2;SDS_P1;SDS_P2;PMS_P1;PMS_P2;Temp;Humidity;BMP_temperature;BMP_pressure;BME280_temperature;BME280_humidity;BME280_pressure;Samples;Min_cycle;Max_cycle;Signal;HPM_P1;HPM_P2
2022/01/07 00:00:48;;;;;;;3.75;2.00;;;-4.80;1.00;;;-5.61;77.20;98433.75;4944346;28;120119;-72
2022/01/07 00:03:18;;;;;;;5.20;2.13;;;-4.80;1.00;;;-5.67;78.03;98437.34;4944263;28;119639;-72
2022/01/07 00:05:54;;;;;;;5.38;2.13;;;-4.80;1.00;;;-5.70;78.34;98456.28;4941941;28;131032;-72
2022/01/07 00:08:25;;;;;;;5.57;2.30;;;-4.90;1.00;;;-5.72;77.99;98468.94;4959555;28;129059;-72
2022/01/07 00:10:56;;;;;;;4.32;2.10;;;-4.80;1.00;;;-5.70;78.63;98451.00;4943508;28;119513;-71
2022/01/07 00:13:26;;;;;;;3.83;1.95;;;-4.80;1.00;;;-5.67;78.61;98467.22;4943689;28;118549;-72
2022/01/07 00:15:55;;;;;;;7.55;2.35;;;-4.80;1.00;;;-5.67;79.80;98453.19;4941476;28;130128;-72
2022/01/07 00:18:24;;;;;;;4.22;2.00;;;-4.90;1.00;;;-5.70;80.54;98451.00;4941547;28;130884;-72
2022/01/07 00:20:53;;;;;;;4.03;1.88;;;-4.90;1.00;;;-5.70;80.27;98456.28;4940400;28;122081;-72
2022/01/07 00:23:22;;;;;;;6.68;2.60;;;-5.00;1.00;;;-5.76;80.41;98450.13;4941635;28;121828;-71
2022/01/07 00:25:51;;;;;;;3.47;2.00;;;-4.90;1.00;;;-5.77;80.77;98461.72;4942729;28;129316;-71
2022/01/07 00:28:21;;;;;;;2.55;1.70;;;-5.00;1.00;;;-5.74;80.75;98468.38;4944552;28;129668;-71
2022/01/07 00:30:50;;;;;;;4.13;2.08;;;-5.00;1.00;;;-5.79;80.74;98495.50;4943639;28;119152;-71
2022/01/07 00:33:19;;;;;;;4.28;2.03;;;-5.00;1.00;;;-5.79;81.50;98469.88;4941111;28;119653;-71
2022/01/07 00:35:47;;;;;;;4.38;1.92;;;-5.00;1.00;;;-5.79;81.99;98461.16;4940786;28;129466;-71
2022/01/07 00:38:16;;;;;;;3.78;1.80;;;-5.00;1.00;;;-5.79;82.15;98474.38;4941359;28;130037;-71
2022/01/07 00:40:44;;;;;;;4.43;2.10;;;-5.00;1.00;;;-5.82;82.41;98475.63;4942876;28;120147;-71
2022/01/07 00:43:13;;;;;;;4.53;2.00;;;-5.00;1.00;;;-5.86;83.13;98479.78;4942430;28;120814;-72
2022/01/07 00:45:44;;;;;;;5.07;2.05;;;-5.00;1.00;;;-5.89;83.22;98480.22;4940011;28;130000;-71
2022/01/07 00:48:13;;;;;;;3.15;1.92;;;-5.00;1.00;;;-5.86;83.14;98485.06;4942113;28;130491;-71
2022/01/07 00:50:42;;;;;;;4.68;2.05;;;-5.00;1.00;;;-5.84;82.96;98493.53;4943556;28;119638;-72
2022/01/07 00:53:11;;;;;;;4.07;2.00;;;-5.10;1.00;;;-5.87;83.55;98494.00;4942683;28;118469;-71
2022/01/07 00:55:41;;;;;;;2.97;1.70;;;-5.10;1.00;;;-5.89;83.54;98516.41;4941430;28;129893;-71
2022/01/07 00:58:10;;;;;;;4.35;1.88;;;-5.10;1.00;;;-5.90;84.19;98505.03;4944049;28;129671;-71
2022/01/07 01:00:39;;;;;;;4.70;2.25;;;-5.10;1.00;;;-5.86;84.30;98495.63;4946284;28;119969;-71
2022/01/07 01:03:09;;;;;;;2.83;1.73;;;-5.10;1.00;;;-5.84;84.22;98503.31;4947078;28;119616;-71
2022/01/07 01:05:39;;;;;;;4.40;1.98;;;-5.10;1.00;;;-5.88;84.09;98524.09;4943993;28;130614;-71
2022/01/07 01:08:08;;;;;;;4.57;1.80;;;-5.10;1.00;;;-5.87;84.55;98511.72;4944715;28;130294;-71
2022/01/07 01:10:36;;;;;;;4.00;1.90;;;-5.20;1.00;;;-5.91;85.23;98519.25;4942781;28;122308;-71
2022/01/07 01:13:06;;;;;;;3.42;1.77;;;-5.20;1.00;;;-5.93;85.51;98531.91;4944837;28;122079;-72
2022/01/07 01:15:37;;;;;;;2.42;1.48;;;-5.30;1.00;;;-5.96;85.16;98537.66;4943278;28;129726;-71
2022/01/07 01:18:06;;;;;;;4.22;1.55;;;-5.20;1.00;;;-5.95;85.51;98533.97;4943836;28;130725;-70
2022/01/07 01:20:36;;;;;;;3.22;1.80;;;-5.30;1.00;;;-6.03;86.53;98542.25;4945029;28;119247;-71
2022/01/07 01:23:05;;;;;;;6.28;1.83;;;-5.30;1.50;;;-5.97;85.83;98541.34;4944130;28;120897;-71
2022/01/07 01:25:33;;;;;;;3.40;1.60;;;-5.30;1.70;;;-6.03;86.28;98542.25;4945579;28;130633;-71
2022/01/07 01:28:02;;;;;;;5.03;1.85;;;-5.30;2.10;;;-6.08;86.89;98550.06;4946784;28;129732;-72
2022/01/07 01:30:35;;;;;;;3.38;1.73;;;-5.40;2.90;;;-6.07;86.77;98562.25;4945559;28;119393;-72
2022/01/07 01:33:04;;;;;;;3.88;1.65;;;-5.40;2.40;;;-6.06;86.76;98559.38;4944838;28;119729;-72
2022/01/07 01:35:33;;;;;;;4.75;2.10;;;-5.40;3.10;;;-6.08;87.22;98556.13;4943844;28;130384;-72
2022/01/07 01:38:02;;;;;;;5.75;1.90;;;-5.50;4.70;;;-6.06;87.23;98558.56;4945207;28;128283;-72
2022/01/07 01:40:32;;;;;;;3.75;1.80;;;-5.50;4.30;;;-6.10;87.02;98557.41;4945811;28;119369;-71
2022/01/07 01:43:01;;;;;;;4.00;1.85;;;-5.50;5.00;;;-6.14;87.37;98557.03;4944104;28;119255;-72
2022/01/07 01:45:32;;;;;;;4.35;2.03;;;-5.50;5.40;;;-6.18;87.41;98567.25;4961835;28;129838;-72
2022/01/07 01:48:04;;;;;;;2.75;1.70;;;-5.50;5.00;;;-6.07;87.57;98568.31;4945022;28;129756;-72
2022/01/07 01:50:32;;;;;;;4.68;2.42;;;-5.40;4.90;;;-6.07;86.84;98565.69;4945638;28;119345;-72
2022/01/07 01:53:03;;;;;;;5.93;1.77;;;-5.40;4.90;;;-5.95;87.29;98565.69;4944089;28;119706;-72
2022/01/07 01:55:32;;;;;;;6.72;1.92;;;-5.30;5.10;;;-5.92;87.93;98574.97;4946504;28;130070;-72
2022/01/07 01:58:05;;;;;;;7.40;2.10;;;-5.40;6.00;;;-5.93;86.99;98579.47;4943598;28;129760;-72
2022/01/07 02:00:36;;;;;;;3.25;1.88;;;-5.50;6.30;;;-6.01;87.61;98580.63;4944172;28;123132;-72
2022/01/07 02:03:04;;;;;;;4.40;1.80;;;-5.50;8.10;;;-6.04;87.66;98583.72;4945642;28;120959;-72
2022/01/07 02:05:34;;;;;;;5.00;2.30;;;-5.60;8.70;;;-6.01;88.07;98578.00;4945302;28;129717;-71
2022/01/07 02:08:05;;;;;;;5.60;2.10;;;-5.60;9.50;;;-6.04;88.70;98577.66;4944543;28;129450;-71
2022/01/07 02:10:34;;;;;;;6.22;2.17;;;-5.50;10.40;;;-6.06;88.94;98584.97;4943482;28;120077;-71
2022/01/07 02:13:02;;;;;;;8.85;2.70;;;-5.60;11.40;;;-6.09;89.71;98588.88;4944670;28;119563;-71
2022/01/07 02:15:31;;;;;;;6.20;2.30;;;-5.60;12.40;;;-6.12;90.20;98591.16;4944956;28;129823;-71
2022/01/07 02:18:00;;;;;;;5.75;1.90;;;-5.50;14.00;;;-6.06;90.72;98590.25;4943130;28;130139;-71
2022/01/07 02:20:30;;;;;;;5.18;2.55;;;-5.50;14.70;;;-6.15;91.05;98587.16;4941455;28;120086;-71
2022/01/07 02:23:00;;;;;;;4.97;2.35;;;-5.50;15.50;;;-6.12;91.51;98596.44;4943421;28;119777;-72
2022/01/07 02:25:30;;;;;;;4.72;2.10;;;-5.40;15.80;;;-6.02;91.60;98594.88;4941966;28;130966;-72
2022/01/07 02:27:58;;;;;;;5.15;2.45;;;-5.40;16.00;;;-5.97;91.36;98602.94;4944747;28;128668;-72
2022/01/07 02:30:29;;;;;;;4.95;2.30;;;-5.30;16.90;;;-5.82;91.48;98606.97;4945562;28;119692;-72
2022/01/07 02:32:59;;;;;;;4.68;2.10;;;-5.20;17.20;;;-5.72;90.91;98616.97;4943088;28;119997;-71
2022/01/07 02:35:34;;;;;;;5.10;2.60;;;-5.10;16.30;;;-5.69;91.03;98608.59;4945603;28;130220;-72
2022/01/07 02:38:03;;;;;;;4.93;2.33;;;-5.10;15.10;;;-5.78;91.14;98603.63;4944036;28;129705;-72
2022/01/07 02:40:32;;;;;;;4.82;2.40;;;-5.10;15.10;;;-5.75;90.42;98612.13;4942560;28;119500;-71
2022/01/07 02:43:01;;;;;;;4.70;2.25;;;-5.10;14.30;;;-5.77;90.77;98620.28;4945351;28;119340;-71
2022/01/07 02:45:35;;;;;;;7.47;2.53;;;-5.10;13.90;;;-5.73;90.72;98618.81;4941991;28;129966;-72
2022/01/07 02:48:04;;;;;;;4.82;2.25;;;-5.00;14.10;;;-5.56;90.52;98637.47;4944460;28;129546;-72
2022/01/07 02:50:38;;;;;;;4.47;2.17;;;-5.00;13.80;;;-5.65;90.71;98639.63;4942850;28;122623;-71
2022/01/07 02:53:11;;;;;;;5.65;2.63;;;-5.00;13.80;;;-5.67;90.45;98632.94;4944510;28;121857;-71
2022/01/07 02:55:41;;;;;;;5.82;2.53;;;-5.00;13.60;;;-5.65;90.95;98612.41;4942532;28;129916;-72
2022/01/07 02:58:10;;;;;;;11.88;2.88;;;-5.10;14.30;;;-5.68;91.69;98626.06;4944602;28;130150;-71
2022/01/07 03:00:39;;;;;;;4.93;2.42;;;-5.20;16.00;;;-5.76;91.73;98621.91;4944371;28;118486;-72
2022/01/07 03:03:09;;;;;;;3.92;2.13;;;-5.20;18.60;;;-5.81;92.86;98622.59;4943922;28;119844;-71
2022/01/07 03:05:41;;;;;;;5.07;2.30;;;-5.20;19.70;;;-5.79;92.59;98623.16;4943859;28;129841;-71
2022/01/07 03:08:11;;;;;;;8.35;2.60;;;-5.20;20.50;;;-5.74;93.02;98634.91;4943800;28;129267;-72
2022/01/07 03:10:40;;;;;;;4.70;2.28;;;-5.20;21.00;;;-5.78;93.03;98630.06;4942541;28;120040;-71
2022/01/07 03:13:09;;;;;;;4.82;2.20;;;-5.10;21.10;;;-5.84;93.29;98641.53;4942159;28;119413;-71
2022/01/07 03:15:39;;;;;;;5.05;2.22;;;-5.20;21.60;;;-5.77;92.99;98636.16;4940630;28;130076;-71
2022/01/07 03:18:09;;;;;;;8.32;2.28;;;-5.10;21.20;;;-5.82;93.74;98642.13;4944447;28;130797;-72
2022/01/07 03:20:42;;;;;;;5.25;2.30;;;-5.10;21.70;;;-5.78;94.12;98638.00;4941193;28;119423;-72
2022/01/07 03:23:12;;;;;;;5.32;2.17;;;-5.20;22.60;;;-5.75;93.71;98655.22;4942135;28;119655;-72
2022/01/07 03:25:43;;;;;;;5.22;2.10;;;-5.10;23.20;;;-5.79;93.84;98654.88;4941670;28;130005;-71
2022/01/07 03:28:13;;;;;;;5.25;2.20;;;-5.10;23.20;;;-5.73;93.75;98647.06;4941429;28;129788;-72
2022/01/07 03:30:44;;;;;;;3.83;1.90;;;-5.00;22.50;;;-5.73;93.63;98642.59;4944473;28;118622;-72
2022/01/07 03:33:12;;;;;;;4.25;1.70;;;-5.10;23.50;;;-5.70;94.57;98643.97;4945392;28;119485;-72
2022/01/07 03:35:43;;;;;;;6.35;2.08;;;-5.10;23.50;;;-5.77;94.17;98636.94;4941988;28;130006;-72
2022/01/07 03:38:13;;;;;;;5.75;1.98;;;-5.10;24.10;;;-5.75;94.61;98643.84;4944956;28;129273;-71
2022/01/07 03:40:42;;;;;;;4.88;2.08;;;-5.00;24.10;;;-5.73;94.36;98669.03;4940654;28;122287;-72
2022/01/07 03:43:13;;;;;;;4.80;2.20;;;-4.90;22.00;;;-5.66;94.48;98650.44;4941870;28;121842;-72
2022/01/07 03:45:45;;;;;;;6.50;2.15;;;-4.80;20.10;;;-5.68;94.18;98645.38;4941820;28;129906;-72
2022/01/07 03:48:13;;;;;;;4.07;1.67;;;-4.90;20.20;;;-5.70;94.73;98642.16;4944424;28;130941;-72
2022/01/07 03:50:46;;;;;;;5.05;2.10;;;-5.00;21.50;;;-5.68;94.22;98649.88;4943459;28;119567;-72
2022/01/07 03:53:15;;;;;;;4.00;1.77;;;-5.00;22.90;;;-5.68;94.32;98649.88;4942162;28;119297;-72
2022/01/07 03:55:44;;;;;;;5.15;1.92;;;-5.00;23.10;;;-5.69;94.41;98658.81;4942021;28;129757;-72
2022/01/07 03:58:12;;;;;;;4.55;1.75;;;-5.00;23.40;;;-5.68;94.89;98658.59;4942138;28;130230;-72
2022/01/07 04:00:42;;;;;;;4.30;1.70;;;-4.90;23.50;;;-5.67;94.40;98667.31;4941631;28;119679;-72
2022/01/07 04:03:16;;;;;;;5.50;1.88;;;-4.90;23.40;;;-5.64;95.08;98672.16;4942908;28;119846;-72
2022/01/07 04:05:46;;;;;;;4.88;2.15;;;-4.90;23.30;;;-5.60;94.87;98670.69;4940240;28;130938;-71
2022/01/07 04:08:15;;;;;;;3.42;1.88;;;-4.90;23.90;;;-5.49;94.86;98669.88;4943706;28;129819;-72
2022/01/07 04:10:44;;;;;;;4.50;1.90;;;-4.80;23.40;;;-5.44;94.33;98671.84;4942145;28;119843;-72
2022/01/07 04:13:12;;;;;;;3.55;1.80;;;-4.80;23.30;;;-5.48;94.51;98671.50;4941648;28;119896;-73
2022/01/07 04:15:40;;;;;;;5.60;2.00;;;-4.80;24.00;;;-5.53;94.58;98683.78;4943673;28;129948;-70
2022/01/07 04:18:11;;;;;;;3.97;1.70;;;-4.90;25.30;;;-5.56;95.18;98684.25;4941755;28;130013;-70
2022/01/07 04:20:40;;;;;;;4.20;1.83;;;-4.90;27.20;;;-5.56;95.60;98679.78;4943772;28;120000;-70
2022/01/07 04:23:10;;;;;;;6.10;2.08;;;-4.90;27.20;;;-5.56;95.33;98679.78;4942089;28;120484;-72
2022/01/07 04:25:39;;;;;;;5.97;2.08;;;-4.90;27.90;;;-5.61;95.82;98676.97;4941422;28;129864;-71
2022/01/07 04:28:09;;;;;;;4.85;2.17;;;-5.00;29.40;;;-5.59;96.27;98669.66;4941150;28;129872;-71
2022/01/07 04:30:41;;;;;;;6.40;2.08;;;-5.00;29.60;;;-5.64;96.51;98677.44;4943519;28;121606;-72
2022/01/07 04:33:13;;;;;;;5.95;2.47;;;-5.00;30.10;;;-5.53;95.75;98686.44;4943701;28;122242;-71
2022/01/07 04:35:49;;;;;;;3.70;1.80;;;-4.90;31.20;;;-5.56;96.61;98679.78;4947074;28;130918;-71
2022/01/07 04:38:20;;;;;;;6.68;2.13;;;-5.00;33.20;;;-5.64;96.50;98682.72;4944485;28;129922;-72
2022/01/07 04:40:49;;;;;;;4.03;2.03;;;-5.00;32.70;;;-5.66;96.73;98684.78;4946248;28;121556;-71
2022/01/07 04:43:18;;;;;;;6.28;2.08;;;-5.00;33.90;;;-5.67;97.82;98681.34;4944669;28;120486;-71
2022/01/07 04:45:49;;;;;;;4.57;2.25;;;-4.90;34.60;;;-5.66;97.19;98695.38;4946868;28;130466;-72
2022/01/07 04:48:20;;;;;;;4.43;2.10;;;-5.00;34.30;;;-5.62;97.58;98681.47;4946981;28;129777;-72
2022/01/07 04:50:49;;;;;;;5.70;2.50;;;-5.00;35.80;;;-5.73;97.77;98694.66;4944658;28;119403;-71
2022/01/07 04:53:18;;;;;;;6.63;2.72;;;-5.10;38.80;;;-5.63;98.13;98689.63;4945817;28;119632;-71
2022/01/07 04:55:47;;;;;;;5.65;2.10;;;-5.00;41.20;;;-5.62;98.25;98691.25;4943098;28;130042;-71
2022/01/07 04:58:17;;;;;;;4.68;2.00;;;-4.90;40.50;;;-5.56;98.37;98700.94;4946471;28;130057;-70
2022/01/07 05:00:46;;;;;;;5.93;2.20;;;-4.90;39.90;;;-5.54;98.34;98720.00;4944323;28;119754;-70
2022/01/07 05:03:17;;;;;;;7.00;2.28;;;-4.90;39.90;;;-5.55;98.38;98705.16;4962660;28;119225;-70
2022/01/07 05:05:50;;;;;;;5.07;2.10;;;-4.70;37.60;;;-5.46;97.89;98701.16;4944973;28;129710;-71
2022/01/07 05:08:20;;;;;;;11.43;2.88;;;-4.70;36.80;;;-5.40;98.31;98703.97;4945985;28;129709;-71
2022/01/07 05:10:50;;;;;;;5.13;2.40;;;-4.70;36.70;;;-5.28;98.07;98707.44;4946768;28;119956;-72
2022/01/07 05:13:18;;;;;;;5.70;2.03;;;-4.70;37.70;;;-5.26;97.76;98721.25;4944549;28;119722;-71
2022/01/07 05:15:47;;;;;;;6.20;2.22;;;-4.60;39.20;;;-5.24;97.28;98721.81;4944072;28;129977;-71
2022/01/07 05:18:18;;;;;;;8.38;2.40;;;-4.70;37.70;;;-5.26;97.57;98721.25;4944026;28;129625;-71
2022/01/07 05:20:48;;;;;;;5.28;2.08;;;-4.60;39.00;;;-5.34;98.30;98740.09;4943213;28;121882;-72
2022/01/07 05:23:16;;;;;;;4.82;2.33;;;-4.60;39.60;;;-5.45;98.41;98734.53;4943878;28;121744;-71
2022/01/07 05:25:53;;;;;;;4.97;2.30;;;-4.70;39.50;;;-5.45;98.88;98753.03;4943471;28;130548;-72
2022/01/07 05:28:21;;;;;;;5.10;2.72;;;-4.70;39.90;;;-5.40;98.90;98735.69;4944934;28;130349;-72
2022/01/07 05:30:52;;;;;;;8.50;2.28;;;-4.70;39.80;;;-5.41;98.77;98750.75;4944154;28;119358;-71
2022/01/07 05:33:20;;;;;;;4.25;2.28;;;-4.70;41.30;;;-5.44;99.29;98751.19;4944178;28;120170;-71
2022/01/07 05:35:49;;;;;;;5.65;2.60;;;-4.70;43.10;;;-5.45;99.34;98755.69;4943715;28;130346;-70
2022/01/07 05:38:17;;;;;;;5.70;2.20;;;-4.70;42.80;;;-5.47;99.78;98764.88;4946579;28;130098;-72
2022/01/07 05:40:47;;;;;;;8.18;2.65;;;-4.70;44.40;;;-5.40;100.00;98762.16;4944058;28;119624;-72
2022/01/07 05:43:16;;;;;;;4.45;2.00;;;-4.60;44.10;;;-5.28;99.65;98760.34;4944506;28;119940;-71
2022/01/07 05:45:46;;;;;;;8.32;2.65;;;-4.50;43.50;;;-5.15;98.99;98760.13;4944741;28;130543;-72
2022/01/07 05:48:14;;;;;;;6.90;2.47;;;-4.40;41.90;;;-5.15;99.30;98757.47;4945180;28;128297;-72
2022/01/07 05:50:43;;;;;;;4.00;2.10;;;-4.40;41.60;;;-5.11;99.56;98765.75;4945367;28;119621;-72
2022/01/07 05:53:11;;;;;;;6.20;2.40;;;-4.40;42.30;;;-4.98;98.82;98775.34;4944258;28;119303;-72
2022/01/07 05:55:40;;;;;;;5.97;1.88;;;-4.30;39.90;;;-5.01;97.71;98771.31;4943536;28;130025;-72
2022/01/07 05:58:09;;;;;;;6.03;2.15;;;-4.30;34.30;;;-5.02;97.75;98775.00;4943325;28;129783;-72
2022/01/07 06:00:41;;;;;;;5.53;2.13;;;-4.20;34.50;;;-4.83;97.20;98783.69;4945352;28;120003;-72
2022/01/07 06:03:10;;;;;;;6.10;2.35;;;-4.20;33.80;;;-4.82;96.97;98785.25;4943800;28;119566;-72
2022/01/07 06:05:39;;;;;;;8.20;2.05;;;-4.20;31.70;;;-4.79;96.89;98776.88;4943093;28;130478;-72
2022/01/07 06:08:09;;;;;;;5.60;2.10;;;-4.10;29.50;;;-4.83;97.03;98778.38;4942161;28;129577;-71
2022/01/07 06:10:38;;;;;;;7.25;2.53;;;-4.10;29.80;;;-4.84;96.09;98792.63;4944068;28;122206;-71
2022/01/07 06:13:09;;;;;;;6.90;2.15;;;-4.20;29.70;;;-4.79;96.40;98789.31;4945708;28;122291;-72
2022/01/07 06:15:39;;;;;;;5.47;2.42;;;-4.20;30.90;;;-4.82;96.88;98798.50;4945951;28;129945;-72
2022/01/07 06:18:07;;;;;;;6.78;2.58;;;-4.30;32.60;;;-4.86;96.77;98810.59;4943646;28;129623;-72
2022/01/07 06:20:36;;;;;;;5.05;2.00;;;-4.30;34.10;;;-4.82;96.91;98801.16;4944063;28;119762;-72
2022/01/07 06:23:04;;;;;;;6.30;2.30;;;-4.20;33.50;;;-4.76;96.80;98802.88;4943788;28;119649;-71
2022/01/07 06:25:33;;;;;;;4.47;2.00;;;-4.20;34.60;;;-4.76;97.10;98794.94;4942839;28;130681;-72
2022/01/07 06:28:01;;;;;;;6.68;2.28;;;-4.20;34.60;;;-4.84;97.33;98803.22;4943337;28;129694;-72
2022/01/07 06:30:31;;;;;;;6.45;2.55;;;-4.20;35.50;;;-4.83;96.64;98820.75;4946088;28;119645;-72
2022/01/07 06:33:02;;;;;;;6.07;2.00;;;-4.30;35.80;;;-4.76;96.84;98805.53;4943504;28;119221;-72
2022/01/07 06:35:33;;;;;;;6.95;2.00;;;-4.30;35.50;;;-4.85;96.57;98798.97;4943301;28;130353;-71
2022/01/07 06:38:02;;;;;;;3.92;1.63;;;-4.30;35.60;;;-4.87;96.33;98819.56;4945078;28;130101;-71
2022/01/07 06:40:30;;;;;;;4.15;1.90;;;-4.30;33.70;;;-4.83;96.57;98809.31;4944744;28;119232;-71
2022/01/07 06:42:58;;;;;;;5.30;2.10;;;-4.30;32.00;;;-4.81;96.31;98818.66;4944637;28;119198;-71
2022/01/07 06:45:27;;;;;;;3.63;1.70;;;-4.30;33.60;;;-4.75;96.10;98816.94;4943699;28;129786;-72
2022/01/07 06:47:56;;;;;;;4.82;1.90;;;-4.30;34.90;;;-4.79;95.92;98821.06;4944492;28;129723;-71
2022/01/07 06:50:26;;;;;;;3.85;1.70;;;-4.30;33.20;;;-4.78;96.19;98822.69;4944591;28;119386;-71
2022/01/07 06:52:58;;;;;;;4.22;1.90;;;-4.30;32.70;;;-4.73;95.96;98812.22;4945280;28;119150;-71
2022/01/07 06:55:26;;;;;;;7.38;2.65;;;-4.30;32.20;;;-4.65;95.52;98816.38;4943076;28;130016;-72
2022/01/07 06:57:56;;;;;;;5.60;1.85;;;-4.20;31.20;;;-4.61;95.17;98817.50;4943038;28;130498;-72
2022/01/07 07:00:25;;;;;;;4.22;2.00;;;-4.30;31.90;;;-4.63;95.64;98825.69;4941602;28;122291;-72
2022/01/07 07:02:53;;;;;;;3.63;1.80;;;-4.30;33.40;;;-4.41;95.20;98828.59;4942717;28;121890;-72
2022/01/07 07:05:24;;;;;;;4.32;1.90;;;-4.20;33.60;;;-4.24;94.53;98830.56;4942356;28;128247;-72
2022/01/07 07:07:55;;;;;;;4.60;1.90;;;-4.00;33.20;;;-4.01;93.37;98837.69;4945801;28;130858;-73
2022/01/07 07:10:23;;;;;;;4.80;1.92;;;-3.90;31.10;;;-4.01;92.60;98838.47;4961140;28;119375;-72
2022/01/07 07:12:53;;;;;;;5.40;2.28;;;-3.80;27.90;;;-3.97;91.96;98844.94;4942158;28;119632;-72
2022/01/07 07:15:21;;;;;;;5.13;1.92;;;-3.80;26.20;;;-3.95;92.61;98851.88;4942144;28;129701;-72
2022/01/07 07:17:51;;;;;;;5.13;2.20;;;-3.80;26.30;;;-3.92;91.90;98856.72;4942900;28;129871;-72
2022/01/07 07:20:23;;;;;;;4.78;2.20;;;-3.80;26.50;;;-3.91;92.99;98853.00;4942764;28;120101;-72
2022/01/07 07:22:53;;;;;;;7.22;2.35;;;-3.70;26.40;;;-3.73;91.52;98847.56;4943426;28;119988;-72
2022/01/07 07:25:26;;;;;;;7.13;2.00;;;-3.60;24.60;;;-3.52;91.31;98847.97;4942680;28;129192;-72
2022/01/07 07:27:54;;;;;;;6.07;2.25;;;-3.50;23.60;;;-3.55;90.80;98851.91;4958771;28;129670;-72
2022/01/07 07:30:24;;;;;;;5.88;2.58;;;-3.50;23.20;;;-3.61;90.78;98860.81;4959288;28;119762;-72
2022/01/07 07:32:54;;;;;;;6.47;2.17;;;-3.50;22.30;;;-3.51;90.58;98852.22;4945174;28;119632;-72
2022/01/07 07:38:13;;;;;;;6.95;2.30;;;-3.40;21.10;;;-3.44;89.38;98860.88;4943784;28;129990;-72
2022/01/07 07:40:41;;;;;;;4.32;2.30;;;-3.40;19.80;;;-3.32;89.13;98851.03;4941081;28;119559;-72
2022/01/07 07:43:10;;;;;;;5.55;2.00;;;-3.30;19.50;;;-3.26;89.10;98859.88;4945420;28;119513;-72
2022/01/07 07:45:39;;;;;;;2.88;1.90;;;-3.30;19.10;;;-3.33;89.06;98857.38;4959553;28;130221;-72
2022/01/07 07:48:08;;;;;;;3.95;2.05;;;-3.30;17.10;;;-3.35;89.44;98870.09;4943767;28;129499;-72
2022/01/07 07:50:37;;;;;;;4.25;1.95;;;-3.30;17.40;;;-3.29;88.62;98866.50;4941913;28;122041;-72
2022/01/07 07:53:06;;;;;;;4.28;2.25;;;-3.30;17.60;;;-3.32;89.81;98860.81;4941617;28;121970;-72
2022/01/07 07:55:36;;;;;;;4.82;2.03;;;-3.30;18.70;;;-3.38;90.15;98851.97;4943475;28;128828;-71
2022/01/07 07:58:05;;;;;;;7.65;2.47;;;-3.20;19.30;;;-3.30;89.68;98870.16;4941149;28;130450;-71
2022/01/07 08:00:34;;;;;;;5.85;2.22;;;-3.20;18.20;;;-3.02;88.36;98871.22;4941770;28;119709;-71
2022/01/07 08:03:08;;;;;;;5.07;2.15;;;-3.00;16.60;;;-2.92;88.89;98871.38;4943353;28;119569;-71
2022/01/07 08:05:36;;;;;;;4.03;2.10;;;-2.90;17.60;;;-2.68;86.87;98868.63;4940709;28;131062;-70
2022/01/07 08:08:08;;;;;;;3.50;2.08;;;-2.70;13.50;;;-2.64;86.91;98875.06;4941696;28;130558;-71
2022/01/07 08:10:45;;;;;;;6.45;2.33;;;-2.70;13.70;;;-2.53;87.09;98887.47;4944899;28;120105;-71
2022/01/07 08:16:02;;;;;;;3.90;2.15;;;-2.60;10.20;;;-2.49;85.99;98884.31;4942135;28;129679;-70
2022/01/07 08:18:33;;;;;;;5.25;2.40;;;-2.60;10.60;;;-2.61;86.12;98884.41;4943821;28;129359;-71
2022/01/07 08:21:05;;;;;;;6.00;2.05;;;-2.60;10.60;;;-2.62;85.81;98880.94;4942090;28;120506;-71
2022/01/07 08:23:36;;;;;;;4.03;2.33;;;-2.60;8.90;;;-2.26;84.69;98897.47;4942352;28;119419;-71
2022/01/07 08:26:09;;;;;;;5.80;1.95;;;-2.40;9.00;;;-2.55;84.68;98881.59;4942113;28;130322;-71
2022/01/07 08:28:41;;;;;;;4.97;2.25;;;-2.50;7.60;;;-2.62;85.11;98880.94;4942668;28;129630;-71
2022/01/07 08:31:25;;;;;;;4.70;2.10;;;-2.60;8.10;;;-2.37;85.00;98887.72;4944493;28;119816;-71
2022/01/07 08:36:41;;;;;;;4.28;2.00;;;-2.40;8.00;;;-2.35;84.29;98890.97;4940848;28;130379;-71
2022/01/07 08:39:11;;;;;;;6.28;1.80;;;-2.60;8.50;;;-2.37;84.44;98893.03;4943237;28;129584;-71
2022/01/07 08:41:42;;;;;;;5.20;2.20;;;-2.60;8.90;;;-2.12;83.46;98889.16;4939666;28;123693;-71
2022/01/07 08:44:12;;;;;;;4.75;2.28;;;-2.40;7.70;;;-1.89;82.42;98894.28;4941270;28;122053;-71
2022/01/07 08:46:42;;;;;;;6.07;2.13;;;-2.30;5.70;;;-1.72;81.55;98894.25;4941805;28;129965;-72
2022/01/07 08:49:13;;;;;;;6.45;2.20;;;-2.10;4.60;;;-1.89;81.61;98894.28;4942652;28;129608;-71
2022/01/07 08:51:42;;;;;;;5.40;2.40;;;-2.20;3.60;;;-1.93;81.70;98903.81;4940893;28;119809;-71
2022/01/07 08:54:13;;;;;;;3.97;1.65;;;-2.20;4.40;;;-2.02;82.23;98899.97;4940567;28;119190;-71
2022/01/07 08:56:44;;;;;;;3.58;1.92;;;-2.30;4.60;;;-2.02;82.80;98905.28;4941302;28;129826;-71
2022/01/07 08:59:13;;;;;;;4.13;2.00;;;-2.30;6.60;;;-1.72;81.64;98906.75;4942792;28;130408;-71
2022/01/07 09:01:42;;;;;;;4.47;2.00;;;-2.20;5.40;;;-1.29;80.44;98907.84;4941662;28;119541;-72
2022/01/07 09:04:12;;;;;;;4.38;2.05;;;-2.10;6.10;;;-1.42;80.61;98903.69;4940668;28;119710;-72
2022/01/07 09:06:40;;;;;;;7.40;1.95;;;-2.10;5.70;;;-1.26;80.62;98907.38;4939342;28;129999;-72
2022/01/07 09:09:11;;;;;;;4.40;2.00;;;-1.80;4.80;;;-1.22;80.13;98916.44;4941117;28;130527;-71
2022/01/07 09:11:44;;;;;;;8.00;2.15;;;-1.70;3.40;;;-1.33;79.92;98917.38;4942796;28;119239;-71
2022/01/07 09:14:13;;;;;;;6.38;2.13;;;-1.90;2.40;;;-1.01;80.05;98919.34;4940888;28;120479;-72
2022/01/07 09:16:47;;;;;;;9.25;2.00;;;-1.80;5.20;;;-1.41;79.50;98909.84;4940338;28;129834;-71
2022/01/07 09:19:24;;;;;;;5.10;2.28;;;-2.20;3.90;;;-1.56;80.53;98913.88;4942765;28;130321;-71
2022/01/07 09:21:58;;;;;;;4.00;2.03;;;-2.10;4.20;;;-1.73;80.74;98902.47;4946208;28;118247;-71
2022/01/07 09:24:29;;;;;;;6.65;2.28;;;-2.10;4.00;;;-1.55;80.71;98907.53;4944474;28;119577;-71
2022/01/07 09:27:00;;;;;;;6.32;2.33;;;-2.00;3.60;;;-1.40;80.07;98904.25;4946027;28;129516;-71
2022/01/07 09:29:31;;;;;;;4.85;1.80;;;-1.80;2.10;;;-1.31;80.12;98904.63;4946833;28;129701;-72
2022/01/07 09:32:00;;;;;;;3.22;1.75;;;-1.60;1.50;;;-0.94;77.92;98914.63;4942455;28;122452;-72
2022/01/07 09:34:28;;;;;;;3.67;2.05;;;-1.40;1.00;;;-0.49;76.88;98910.00;4944898;28;121973;-72
2022/01/07 09:37:00;;;;;;;6.15;2.33;;;-1.30;1.00;;;-0.57;75.84;98906.75;4945172;28;129980;-71
2022/01/07 09:39:32;;;;;;;6.07;2.10;;;-1.30;1.00;;;-0.99;77.28;98906.59;4943589;28;129830;-71
2022/01/07 09:42:03;;;;;;;5.22;2.00;;;-1.60;1.00;;;-1.15;78.66;98892.31;4946158;28;119417;-72
2022/01/07 09:44:32;;;;;;;4.78;2.20;;;-1.60;1.00;;;-1.18;79.29;98898.94;4945204;28;118435;-72
2022/01/07 09:47:00;;;;;;;5.30;2.10;;;-1.50;1.00;;;-1.21;78.29;98910.06;4943814;28;130497;-72
2022/01/07 09:49:33;;;;;;;5.00;2.00;;;-1.80;1.00;;;-1.05;78.72;98912.91;4947349;28;102751;-72
2022/01/07 09:52:02;;;;;;;3.83;2.00;;;-1.70;1.00;;;-1.14;78.46;98910.69;4943473;28;119486;-72
2022/01/07 09:54:33;;;;;;;4.70;2.22;;;-1.70;1.00;;;-1.04;78.60;98922.50;4945622;28;118636;-72
2022/01/07 09:57:04;;;;;;;5.43;2.20;;;-1.50;1.00;;;-0.89;78.02;98920.00;4942351;28;129980;-72
2022/01/07 09:59:32;;;;;;;5.40;2.10;;;-1.40;1.00;;;-0.87;77.30;98931.25;4942430;28;129621;-72
2022/01/07 10:02:04;;;;;;;4.10;1.90;;;-1.40;1.00;;;-0.75;76.82;98923.09;4945391;28;119669;-72
2022/01/07 10:04:38;;;;;;;3.65;1.80;;;-1.40;1.00;;;-0.81;77.81;98930.25;4945218;28;119822;-73
2022/01/07 10:07:20;;;;;;;6.80;2.30;;;-1.40;1.00;;;-0.83;76.22;98934.19;4961120;28;130404;-73
2022/01/07 10:10:02;;;;;;;6.25;2.60;;;-1.40;1.00;;;-0.66;76.69;98936.78;4962228;28;130262;-73
2022/01/07 10:12:35;;;;;;;5.00;1.88;;;-1.30;1.00;;;-0.51;75.81;98939.59;4945777;28;119457;-72
2022/01/07 10:15:12;;;;;;;7.13;2.40;;;-1.20;1.00;;;-0.57;75.25;98941.41;4946066;28;119248;-74
2022/01/07 10:17:55;;;;;;;7.07;2.22;;;-1.20;1.00;;;-0.27;74.81;98945.41;4943546;28;130022;-73
2022/01/07 10:20:25;;;;;;;6.18;1.80;;;-1.10;1.00;;;-0.47;75.06;98946.00;4945469;28;129730;-72
2022/01/07 10:23:00;;;;;;;5.15;1.77;;;-1.10;1.00;;;-1.02;75.08;98939.06;4944044;28;122336;-72
2022/01/07 10:25:33;;;;;;;4.93;2.10;;;-1.40;1.00;;;-0.95;76.88;98940.47;4944890;28;121483;-73
2022/01/07 10:28:06;;;;;;;3.95;1.85;;;-1.30;1.00;;;-0.84;75.32;98935.25;4944812;28;128843;-72
2022/01/07 10:30:39;;;;;;;4.85;2.10;;;-1.30;1.00;;;-0.64;74.40;98938.16;4943682;28;129684;-72
2022/01/07 10:33:24;;;;;;;6.60;2.38;;;-1.20;1.00;;;-0.16;72.74;98934.81;4944987;28;120557;-72
2022/01/07 10:35:56;;;;;;;6.22;2.15;;;-0.80;1.00;;;0.04;72.06;98944.84;4945376;28;118488;-73